createdAt,value
2023-02-28T00:01:43.324Z,116.40
2023-02-28T00:04:12.256Z,106.50
2023-02-28T00:06:41.081Z,106.10
2023-02-28T00:09:09.509Z,99.70
2023-02-28T00:11:39.213Z,87.20
2023-02-28T00:14:10.450Z,80.30
2023-02-28T00:16:39.270Z,79.90
2023-02-28T00:19:14.755Z,80.30
2023-02-28T00:21:44.416Z,92.90
2023-02-28T00:24:15.237Z,97.60
2023-02-28T00:26:43.925Z,103.30
2023-02-28T00:29:12.730Z,97.10
2023-02-28T00:31:41.591Z,103.30
2023-02-28T00:34:10.302Z,101.30
2023-02-28T00:36:39.469Z,93.30
2023-02-28T00:39:07.901Z,88.10
2023-02-28T00:41:36.596Z,80.30
2023-02-28T00:44:05.649Z,89.70
2023-02-28T00:46:34.841Z,101.80
2023-02-28T00:49:03.258Z,99.80
2023-02-28T00:51:32.287Z,91.30
2023-02-28T00:54:01.915Z,84.80
2023-02-28T00:56:31.040Z,74.80
2023-02-28T00:58:59.566Z,79.20
2023-02-28T01:01:28.569Z,89.50
2023-02-28T01:03:57.631Z,85.70
2023-02-28T01:06:28.861Z,89.60
2023-02-28T01:08:57.561Z,87.50
2023-02-28T01:11:27.071Z,85.60
2023-02-28T01:13:55.893Z,92.30
2023-02-28T01:16:24.856Z,79.40
2023-02-28T01:18:54.995Z,64.80
2023-02-28T01:21:23.566Z,85.90
2023-02-28T01:23:52.678Z,82.90
2023-02-28T01:26:23.249Z,76.80
2023-02-28T01:28:53.400Z,78.50
2023-02-28T01:31:22.687Z,74.30
2023-02-28T01:33:52.089Z,61.20
2023-02-28T01:36:24.499Z,65.30
2023-02-28T01:38:55.481Z,69.80
2023-02-28T01:41:32.650Z,66.00
2023-02-28T01:44:20.404Z,61.80
2023-02-28T01:46:49.358Z,54.70
2023-02-28T01:49:19.869Z,62.40
2023-02-28T01:51:56.146Z,62.80
2023-02-28T01:54:32.407Z,69.10
2023-02-28T01:57:05.394Z,59.10
2023-02-28T01:59:51.277Z,59.30
2023-02-28T02:02:23.625Z,59.50
2023-02-28T02:05:07.854Z,58.00
2023-02-28T02:07:42.620Z,60.70
2023-02-28T02:10:19.969Z,55.40
2023-02-28T02:12:54.564Z,60.60
2023-02-28T02:15:32.061Z,56.80
2023-02-28T02:18:12.619Z,52.90
2023-02-28T02:21:14.021Z,52.80
2023-02-28T02:23:48.256Z,49.40
2023-02-28T02:26:17.159Z,46.50
2023-02-28T02:28:51.567Z,48.30
2023-02-28T02:31:26.673Z,53.50
2023-02-28T02:34:27.189Z,52.60
2023-02-28T02:37:04.984Z,50.00
2023-02-28T02:39:46.621Z,46.00
2023-02-28T02:42:25.941Z,51.20
2023-02-28T02:45:03.552Z,45.20
2023-02-28T02:47:34.162Z,50.20
2023-02-28T02:50:06.554Z,55.90
2023-02-28T02:52:50.756Z,52.60
2023-02-28T02:55:21.817Z,56.90
2023-02-28T02:58:04.974Z,53.70
2023-02-28T03:00:42.621Z,53.40
2023-02-28T03:03:14.033Z,58.10
2023-02-28T03:05:52.545Z,49.30
2023-02-28T03:08:21.330Z,56.50
2023-02-28T03:11:05.411Z,66.20
2023-02-28T03:14:05.391Z,55.40
2023-02-28T03:16:37.862Z,54.50
2023-02-28T03:19:54.512Z,47.30
2023-02-28T03:22:56.395Z,47.90
2023-02-28T03:25:39.645Z,44.90
2023-02-28T03:28:24.810Z,50.90
2023-02-28T03:31:00.455Z,56.20
2023-02-28T03:33:40.033Z,53.00
2023-02-28T03:36:19.196Z,54.20
2023-02-28T03:38:55.743Z,53.30
2023-02-28T03:41:30.193Z,56.20
2023-02-28T03:44:06.958Z,54.00
2023-02-28T03:46:42.213Z,57.40
2023-02-28T03:49:26.276Z,53.90
2023-02-28T03:51:57.679Z,52.10
2023-02-28T03:54:37.483Z,49.70
2023-02-28T03:57:24.327Z,51.40
2023-02-28T04:00:00.835Z,50.30
2023-02-28T04:02:29.185Z,50.60
2023-02-28T04:04:58.737Z,47.50
2023-02-28T04:07:30.783Z,48.00
2023-02-28T04:10:01.395Z,43.70
2023-02-28T04:12:29.768Z,47.00
2023-02-28T04:14:58.566Z,45.00
2023-02-28T04:17:27.395Z,47.30
2023-02-28T04:19:58.646Z,44.70
2023-02-28T04:22:29.865Z,45.10
2023-02-28T04:24:58.201Z,43.70
2023-02-28T04:27:26.741Z,43.10
2023-02-28T04:29:56.752Z,40.30
2023-02-28T04:32:26.057Z,43.60
2023-02-28T04:34:55.016Z,46.20
2023-02-28T04:37:29.266Z,43.90
2023-02-28T04:39:57.722Z,45.70
2023-02-28T04:42:25.965Z,42.10
2023-02-28T04:44:54.347Z,44.80
2023-02-28T04:47:22.937Z,46.40
2023-02-28T04:49:51.324Z,45.40
2023-02-28T04:52:20.042Z,45.00
2023-02-28T04:54:49.209Z,47.00
2023-02-28T04:57:17.677Z,43.10
2023-02-28T04:59:45.981Z,48.20
2023-02-28T05:02:15.263Z,45.70
2023-02-28T05:04:44.001Z,47.00
2023-02-28T05:07:12.589Z,49.40
2023-02-28T13:24:34.704Z,5.90
2023-02-28T13:27:04.733Z,5.60
2023-02-28T13:29:37.709Z,4.90
2023-02-28T13:32:12.440Z,4.80
2023-02-28T13:35:09.268Z,5.40
2023-02-28T13:37:46.324Z,7.00
2023-02-28T13:40:14.574Z,5.80
2023-02-28T13:42:46.466Z,6.30
2023-02-28T13:45:15.329Z,4.90
2023-02-28T13:48:01.502Z,8.00
2023-02-28T13:50:36.674Z,7.60
2023-02-28T13:53:19.566Z,5.10
2023-02-28T13:55:54.613Z,5.30
2023-02-28T13:58:37.914Z,6.10
2023-02-28T14:01:34.091Z,7.60
2023-02-28T14:04:33.694Z,6.40
2023-02-28T14:07:06.490Z,6.90
2023-02-28T14:10:01.010Z,7.70
2023-02-28T14:12:51.461Z,6.90
2023-02-28T14:15:41.536Z,7.80
2023-02-28T14:18:27.079Z,8.50
2023-02-28T14:21:26.605Z,9.70
2023-02-28T14:24:24.191Z,9.70
2023-02-28T14:26:58.937Z,10.10
2023-02-28T14:29:52.065Z,8.60
2023-02-28T14:32:29.969Z,8.00
2023-02-28T14:35:19.019Z,7.40
2023-02-28T14:37:49.795Z,8.90
2023-02-28T14:40:26.894Z,10.50
2023-02-28T14:43:01.053Z,8.70
2023-02-28T14:45:33.046Z,9.60
2023-02-28T14:48:05.271Z,7.70
2023-02-28T14:50:38.871Z,8.60
2023-02-28T14:53:16.958Z,9.60
2023-02-28T14:55:50.472Z,9.30
2023-02-28T14:58:28.876Z,7.40
2023-02-28T15:01:02.693Z,7.00
2023-02-28T15:03:33.421Z,7.20
2023-02-28T15:06:05.354Z,7.80
2023-02-28T15:08:37.398Z,8.60
2023-02-28T15:11:08.298Z,6.70
2023-02-28T15:13:47.508Z,7.30
2023-02-28T15:16:26.393Z,9.50
2023-02-28T15:19:00.679Z,7.50
2023-02-28T15:21:34.761Z,7.60
2023-02-28T15:24:54.634Z,9.60
2023-02-28T15:27:33.487Z,7.40
2023-02-28T15:30:07.616Z,9.60
2023-02-28T15:32:40.255Z,9.90
2023-02-28T15:35:29.887Z,20.80
2023-02-28T15:38:16.888Z,19.80
2023-02-28T15:40:54.819Z,15.20
2023-02-28T15:43:35.174Z,10.10
2023-02-28T15:46:07.663Z,9.30
2023-02-28T15:48:39.306Z,11.00
2023-02-28T15:51:16.595Z,16.50
2023-02-28T15:54:01.287Z,17.20
2023-02-28T15:56:30.511Z,21.90
2023-02-28T15:59:02.270Z,10.70
2023-02-28T16:01:43.562Z,11.70
2023-02-28T16:04:21.510Z,12.30
2023-02-28T16:06:55.862Z,11.50
2023-02-28T16:09:25.629Z,10.40
2023-02-28T16:11:58.117Z,12.70
2023-02-28T16:14:28.894Z,12.20
2023-02-28T16:17:06.594Z,11.00
2023-02-28T16:19:34.986Z,14.30
2023-02-28T16:22:03.703Z,23.20
2023-02-28T16:24:32.046Z,25.10
2023-02-28T16:27:01.778Z,24.40
2023-02-28T16:29:35.822Z,25.20
2023-02-28T16:32:07.219Z,26.40
2023-02-28T16:34:35.821Z,26.10
2023-02-28T16:37:06.652Z,33.10
2023-02-28T16:39:35.307Z,39.30
2023-02-28T16:42:04.125Z,56.90
2023-02-28T16:44:37.025Z,62.50
2023-02-28T16:47:05.917Z,53.10
2023-02-28T16:49:34.539Z,51.00
2023-02-28T16:52:03.158Z,49.70
2023-02-28T16:54:31.638Z,41.90
2023-02-28T16:57:01.184Z,40.70
2023-02-28T16:59:31.043Z,37.40
2023-02-28T17:02:00.088Z,39.30
2023-02-28T17:04:30.394Z,34.90
2023-02-28T17:06:59.672Z,109.60
2023-02-28T17:09:36.720Z,131.00
2023-02-28T17:12:10.634Z,180.30
2023-02-28T17:14:39.252Z,134.40
2023-02-28T17:17:08.773Z,108.50
2023-02-28T17:19:40.084Z,48.20
2023-02-28T17:22:09.637Z,57.30
2023-02-28T17:24:38.455Z,50.30
2023-02-28T17:27:08.910Z,27.70
2023-02-28T17:29:41.675Z,40.00
2023-02-28T17:32:17.916Z,37.20
2023-02-28T17:34:47.290Z,77.80
2023-02-28T17:37:18.335Z,79.40
2023-02-28T17:39:46.978Z,69.20
2023-02-28T17:42:15.716Z,51.80
2023-02-28T17:44:44.121Z,51.10
2023-02-28T17:47:13.606Z,44.90
2023-02-28T17:49:42.899Z,54.10
2023-02-28T17:52:11.951Z,80.60
2023-02-28T17:54:40.588Z,75.10
2023-02-28T17:57:16.009Z,72.90
2023-02-28T17:59:45.015Z,78.50
2023-02-28T18:02:14.853Z,56.10
2023-02-28T18:04:43.467Z,45.20
2023-02-28T18:07:13.155Z,58.10
2023-02-28T18:09:41.351Z,40.40
2023-02-28T18:12:10.453Z,33.30
2023-02-28T18:14:39.013Z,39.50
2023-02-28T18:17:13.576Z,38.60
2023-02-28T18:19:42.361Z,46.30
2023-02-28T18:22:11.142Z,64.90
2023-02-28T18:24:39.907Z,51.10
2023-02-28T18:27:08.878Z,50.70
2023-02-28T18:29:41.816Z,40.40
2023-02-28T18:32:10.782Z,35.80
2023-02-28T18:34:39.611Z,29.70
2023-02-28T18:37:08.159Z,47.20
2023-02-28T18:39:36.732Z,42.30
2023-02-28T18:42:05.322Z,46.90
2023-02-28T18:44:38.401Z,49.00
2023-02-28T18:47:10.141Z,59.20
2023-02-28T18:49:38.626Z,50.00
2023-02-28T18:52:07.344Z,39.00
2023-02-28T18:54:36.665Z,35.70
2023-02-28T18:57:05.429Z,37.60
2023-02-28T18:59:33.886Z,35.10
2023-02-28T19:02:02.831Z,40.10
2023-02-28T19:04:32.156Z,70.50
2023-02-28T19:07:01.745Z,48.00
2023-02-28T19:09:30.737Z,53.10
2023-02-28T19:12:00.003Z,69.70
2023-02-28T19:14:28.691Z,88.20
2023-02-28T19:16:57.018Z,78.40
2023-02-28T19:19:25.525Z,80.20
2023-02-28T19:21:55.497Z,60.20
2023-02-28T19:24:24.584Z,65.60
2023-02-28T19:26:53.122Z,70.50
2023-02-28T19:29:22.158Z,64.10
2023-02-28T19:31:51.011Z,65.70
2023-02-28T19:34:20.004Z,63.50
2023-02-28T19:36:48.578Z,64.70
2023-02-28T19:39:19.196Z,65.70
2023-02-28T19:41:50.721Z,72.60
2023-02-28T19:44:19.205Z,87.00
2023-02-28T19:46:48.603Z,100.20
2023-02-28T19:49:18.777Z,107.80
2023-02-28T19:51:47.406Z,97.50
2023-02-28T19:54:21.136Z,96.40
2023-02-28T19:56:49.707Z,176.90
2023-02-28T19:59:25.963Z,139.10
2023-02-28T20:01:59.858Z,151.80
2023-02-28T20:04:28.950Z,210.50
2023-02-28T20:06:57.512Z,131.30
2023-02-28T20:09:26.591Z,127.30
2023-02-28T20:11:59.578Z,134.90
2023-02-28T20:14:28.089Z,116.40
2023-02-28T20:16:58.218Z,148.10
2023-02-28T20:19:27.215Z,151.70
2023-02-28T20:21:55.993Z,179.10
2023-02-28T20:24:26.279Z,188.40
2023-02-28T20:26:56.029Z,143.40
2023-02-28T20:29:25.186Z,127.40
2023-02-28T20:31:58.901Z,155.40
2023-02-28T20:34:27.444Z,139.30
2023-02-28T20:36:58.998Z,188.10
2023-02-28T20:39:27.421Z,169.10
2023-02-28T20:41:57.138Z,154.00
2023-02-28T20:44:26.102Z,138.50
2023-02-28T20:46:55.378Z,137.90
2023-02-28T20:49:24.301Z,122.60
2023-02-28T20:51:52.634Z,134.80
2023-02-28T20:54:22.046Z,156.40
2023-02-28T20:56:50.745Z,174.30
2023-02-28T20:59:21.480Z,222.70
2023-02-28T21:01:50.156Z,226.40
2023-02-28T21:04:19.086Z,182.00
2023-02-28T21:06:52.135Z,145.80
2023-02-28T21:09:20.593Z,139.20
2023-02-28T21:11:49.633Z,184.80
2023-02-28T21:14:18.531Z,174.80
2023-02-28T21:16:47.281Z,159.70
2023-02-28T21:19:21.879Z,144.40
2023-02-28T21:21:54.746Z,151.90
2023-02-28T21:24:23.085Z,142.70
2023-02-28T21:26:53.076Z,153.10
2023-02-28T21:29:21.426Z,151.80
2023-02-28T21:31:55.053Z,151.90
2023-02-28T21:34:23.846Z,140.20
2023-02-28T21:36:52.414Z,127.20
2023-02-28T21:39:30.301Z,127.20
2023-02-28T21:42:04.310Z,123.80
2023-02-28T21:44:34.930Z,142.10
2023-02-28T21:47:03.433Z,176.30
2023-02-28T21:49:33.007Z,216.70
2023-02-28T21:52:02.057Z,191.30
2023-02-28T21:54:30.453Z,191.80
2023-02-28T21:57:00.401Z,194.20
2023-02-28T21:59:32.344Z,207.30
2023-02-28T22:02:01.078Z,158.10
2023-02-28T22:04:29.455Z,117.00
2023-02-28T22:06:58.306Z,110.50
2023-02-28T22:09:28.024Z,99.40
2023-02-28T22:11:58.156Z,155.90
2023-02-28T22:14:27.079Z,123.90
2023-02-28T22:16:57.336Z,129.80
2023-02-28T22:19:28.381Z,95.30
2023-02-28T22:22:01.162Z,85.30
2023-02-28T22:24:29.962Z,87.60
2023-02-28T22:26:58.881Z,112.10
2023-02-28T22:29:27.223Z,110.50
2023-02-28T22:31:55.972Z,109.20
2023-02-28T22:34:24.118Z,97.80
2023-02-28T22:36:52.613Z,97.10
2023-02-28T22:39:21.524Z,98.60
2023-02-28T22:41:50.215Z,86.10
2023-02-28T22:44:23.231Z,78.40
2023-02-28T22:47:01.029Z,77.30
2023-02-28T22:49:29.902Z,75.00
2023-02-28T22:51:58.189Z,73.40
2023-02-28T22:54:29.532Z,73.90
2023-02-28T22:56:58.174Z,75.10
2023-02-28T22:59:27.646Z,77.20
2023-02-28T23:01:56.442Z,104.00
2023-02-28T23:04:26.995Z,104.30
2023-02-28T23:06:55.704Z,323.50
2023-02-28T23:09:25.680Z,262.60
2023-02-28T23:11:54.670Z,211.50
2023-02-28T23:14:23.268Z,91.70
2023-02-28T23:16:55.157Z,96.10
2023-02-28T23:19:30.474Z,106.40
2023-02-28T23:22:00.548Z,93.00
2023-02-28T23:24:33.056Z,73.30
2023-02-28T23:27:05.096Z,71.50
2023-02-28T23:29:34.479Z,79.60
2023-02-28T23:32:03.470Z,78.20
2023-02-28T23:34:34.530Z,76.90
2023-02-28T23:37:03.015Z,77.10
2023-02-28T23:39:32.043Z,78.30
2023-02-28T23:42:00.513Z,76.00
2023-02-28T23:44:29.519Z,78.30
2023-02-28T23:46:57.890Z,76.60
2023-02-28T23:49:29.243Z,88.90
2023-02-28T23:51:57.965Z,82.40
2023-02-28T23:54:30.562Z,81.50
2023-02-28T23:56:59.044Z,83.20
2023-02-28T23:59:27.799Z,85.70
